Surfer 226 — FNNH — position and weather

sailwx.info

Track history (hours):
 
Tides and Currents Weather Stations Pressure Air Temp Water Temp Dewpoint Dewpoint Depression Visibility Wind Speed Wind Dir Waves Ship Positions

Surfer 226

Last reported at 2017-Nov-24 06:42 UTC. Time now 2017-Nov-24 07:30 UTC.
Position S 04°48' E 011°26'.

Length 22 m; draft 1 m.

MMSI: 635016400.

Date/timePositionNaut miles runAvg speedWind from/ knotsBaromVisibWave heightAir tempDewpointWater temp
2017-Nov-24 06:42S 04°48' E 011°26'18 1.2
2017-Nov-23 15:17S 05°05' E 011°33'726.4
2017-Nov-23 15:01S 05°11' E 011°28'815.8
2017-Nov-23 14:30S 05°17' E 011°23'2 3.5
2017-Nov-23 14:00S 05°19' E 011°23'0 0.0
2017-Nov-23 13:29S 05°19' E 011°23'0 0.0
2017-Nov-23 13:00S 05°19' E 011°23'0 0.0
2017-Nov-23 12:29S 05°19' E 011°23'0 0.0
2017-Nov-23 11:55S 05°19' E 011°23'0 0.0
2017-Nov-23 11:29S 05°19' E 011°23'0 0.0
2017-Nov-23 11:00S 05°19' E 011°23'0 0.0
2017-Nov-23 10:30S 05°19' E 011°23'0 0.0
2017-Nov-23 09:55S 05°19' E 011°23'0 0.0
2017-Nov-23 09:30S 05°19' E 011°23'0 0.0
2017-Nov-23 09:00S 05°19' E 011°23'0 0.0
2017-Nov-23 08:30S 05°19' E 011°23'0 0.0
2017-Nov-23 08:00S 05°19' E 011°23'1 2.9
2017-Nov-23 07:30S 05°17' E 011°23'4 8.1
2017-Nov-23 07:00S 05°14' E 011°25'1224.2
2017-Nov-23 06:30S 05°05' E 011°34'  
2017-Nov-16 15:24S 05°07' E 011°31'1024.4
2017-Nov-16 15:00S 05°15' E 011°25'5 8.9
2017-Nov-16 14:30S 05°19' E 011°23'0 0.1
2017-Nov-16 14:00S 05°19' E 011°23'0 0.0
2017-Nov-16 13:29S 05°19' E 011°23'0 0.0
2017-Nov-16 13:00S 05°19' E 011°23'0 0.0
2017-Nov-16 12:30S 05°19' E 011°23'0 0.0
2017-Nov-16 12:00S 05°19' E 011°23'0 0.0
2017-Nov-16 11:30S 05°19' E 011°23'0 0.0
2017-Nov-16 11:00S 05°19' E 011°23'0 0.0
2017-Nov-16 10:30S 05°19' E 011°23'0 0.0
2017-Nov-16 10:00S 05°19' E 011°23'0 0.0
2017-Nov-16 09:30S 05°19' E 011°23'0 0.0
2017-Nov-16 08:58S 05°19' E 011°23'0 0.0
2017-Nov-16 08:30S 05°19' E 011°23'0 0.0
2017-Nov-16 08:00S 05°19' E 011°23'2 3.2
2017-Nov-16 07:30S 05°17' E 011°23'816.6
2017-Nov-16 07:00S 05°11' E 011°28'5 0.3
2017-Nov-15 15:25S 05°14' E 011°32'1022.4
2017-Nov-15 14:59S 05°23' E 011°27'0 0.9
2017-Nov-15 14:30S 05°23' E 011°26'0 0.0
2017-Nov-15 13:46S 05°23' E 011°26'0 0.0
2017-Nov-15 13:28S 05°23' E 011°26'0 0.0
2017-Nov-15 12:54S 05°23' E 011°26'0 0.0
2017-Nov-15 12:29S 05°23' E 011°26'0 0.1
2017-Nov-15 08:08S 05°23' E 011°27'0 0.0
2017-Nov-15 07:59S 05°23' E 011°27'2 3.9
2017-Nov-15 07:29S 05°21' E 011°27'17 1.0
2017-Nov-14 14:22S 05°07' E 011°36'923.6
2017-Nov-14 14:00S 05°14' E 011°32'1019.7
2017-Nov-14 13:30S 05°23' E 011°27'0 0.0
2017-Nov-14 10:33S 05°23' E 011°27'1 2.2
2017-Nov-14 10:19S 05°22' E 011°26'0 0.1
2017-Nov-14 09:59S 05°22' E 011°26'1 1.0
2017-Nov-14 09:28S 05°23' E 011°27'1017.4
2017-Nov-14 08:53S 05°14' E 011°32'  
Track history (hours):
 
Tides and Currents Weather Stations Pressure Air Temp Water Temp Dewpoint Dewpoint Depression Visibility Wind Speed Wind Dir Waves Ship Positions

Surfer 226

Last reported at 2017-Nov-24 06:42 UTC. Time now 2017-Nov-24 07:30 UTC.
Position S 04°48' E 011°26'.

Length 22 m; draft 1 m.

MMSI: 635016400.

Date/timePositionNaut miles runAvg speedWind from/ knotsBaromVisibWave heightAir tempDewpointWater temp
2017-Nov-24 06:42S 04°48' E 011°26'18 1.2
2017-Nov-23 15:17S 05°05' E 011°33'726.4
2017-Nov-23 15:01S 05°11' E 011°28'815.8
2017-Nov-23 14:30S 05°17' E 011°23'2 3.5
2017-Nov-23 14:00S 05°19' E 011°23'0 0.0
2017-Nov-23 13:29S 05°19' E 011°23'0 0.0
2017-Nov-23 13:00S 05°19' E 011°23'0 0.0
2017-Nov-23 12:29S 05°19' E 011°23'0 0.0
2017-Nov-23 11:55S 05°19' E 011°23'0 0.0
2017-Nov-23 11:29S 05°19' E 011°23'0 0.0
2017-Nov-23 11:00S 05°19' E 011°23'0 0.0
2017-Nov-23 10:30S 05°19' E 011°23'0 0.0
2017-Nov-23 09:55S 05°19' E 011°23'0 0.0
2017-Nov-23 09:30S 05°19' E 011°23'0 0.0
2017-Nov-23 09:00S 05°19' E 011°23'0 0.0
2017-Nov-23 08:30S 05°19' E 011°23'0 0.0
2017-Nov-23 08:00S 05°19' E 011°23'1 2.9
2017-Nov-23 07:30S 05°17' E 011°23'4 8.1
2017-Nov-23 07:00S 05°14' E 011°25'1224.2
2017-Nov-23 06:30S 05°05' E 011°34'  
2017-Nov-16 15:24S 05°07' E 011°31'1024.4
2017-Nov-16 15:00S 05°15' E 011°25'5 8.9
2017-Nov-16 14:30S 05°19' E 011°23'0 0.1
2017-Nov-16 14:00S 05°19' E 011°23'0 0.0
2017-Nov-16 13:29S 05°19' E 011°23'0 0.0
2017-Nov-16 13:00S 05°19' E 011°23'0 0.0
2017-Nov-16 12:30S 05°19' E 011°23'0 0.0
2017-Nov-16 12:00S 05°19' E 011°23'0 0.0
2017-Nov-16 11:30S 05°19' E 011°23'0 0.0
2017-Nov-16 11:00S 05°19' E 011°23'0 0.0
2017-Nov-16 10:30S 05°19' E 011°23'0 0.0
2017-Nov-16 10:00S 05°19' E 011°23'0 0.0
2017-Nov-16 09:30S 05°19' E 011°23'0 0.0
2017-Nov-16 08:58S 05°19' E 011°23'0 0.0
2017-Nov-16 08:30S 05°19' E 011°23'0 0.0
2017-Nov-16 08:00S 05°19' E 011°23'2 3.2
2017-Nov-16 07:30S 05°17' E 011°23'816.6
2017-Nov-16 07:00S 05°11' E 011°28'5 0.3
2017-Nov-15 15:25S 05°14' E 011°32'1022.4
2017-Nov-15 14:59S 05°23' E 011°27'0 0.9
2017-Nov-15 14:30S 05°23' E 011°26'0 0.0
2017-Nov-15 13:46S 05°23' E 011°26'0 0.0
2017-Nov-15 13:28S 05°23' E 011°26'0 0.0
2017-Nov-15 12:54S 05°23' E 011°26'0 0.0
2017-Nov-15 12:29S 05°23' E 011°26'0 0.1
2017-Nov-15 08:08S 05°23' E 011°27'0 0.0
2017-Nov-15 07:59S 05°23' E 011°27'2 3.9
2017-Nov-15 07:29S 05°21' E 011°27'17 1.0
2017-Nov-14 14:22S 05°07' E 011°36'923.6
2017-Nov-14 14:00S 05°14' E 011°32'1019.7
2017-Nov-14 13:30S 05°23' E 011°27'0 0.0
2017-Nov-14 10:33S 05°23' E 011°27'1 2.2
2017-Nov-14 10:19S 05°22' E 011°26'0 0.1
2017-Nov-14 09:59S 05°22' E 011°26'1 1.0
2017-Nov-14 09:28S 05°23' E 011°27'1017.4
2017-Nov-14 08:53S 05°14' E 011°32'  

Dump ship's entire track history